Time;durP1;ratioP1;P1;durP2;ratioP2;P2;SDS_P1;SDS_P2;PMS_P1;PMS_P2;Temp;Humidity;BMP_temperature;BMP_pressure;BME280_temperature;BME280_humidity;BME280_pressure;Samples;Min_cycle;Max_cycle;Signal;HPM_P1;HPM_P2
2022/12/08 00:01:14;;;;;;;3.42;1.00;;;2.50;99.90;;;;;;5084884;28;20052;-66
2022/12/08 00:03:40;;;;;;;2.75;1.10;;;2.50;99.90;;;;;;5086564;28;20040;-65
2022/12/08 00:11:38;;;;;;;5.50;1.38;;;2.60;99.90;;;;;;5071470;28;20073;-65
2022/12/08 00:14:04;;;;;;;6.38;1.67;;;2.60;99.90;;;;;;5079249;28;20048;-66
2022/12/08 00:16:30;;;;;;;3.78;1.30;;;2.70;99.90;;;;;;5085744;28;20112;-66
2022/12/08 00:18:55;;;;;;;4.30;1.52;;;2.60;99.90;;;;;;5076987;28;20500;-65
2022/12/08 00:21:21;;;;;;;7.32;1.67;;;2.60;99.90;;;;;;5083957;28;20044;-65
2022/12/08 00:23:47;;;;;;;6.65;1.60;;;2.60;99.90;;;;;;5074410;28;20056;-66
2022/12/08 00:26:12;;;;;;;5.05;1.98;;;2.70;99.90;;;;;;5072798;28;20094;-66
2022/12/08 00:28:38;;;;;;;7.15;1.65;;;2.50;99.90;;;;;;5086295;28;20033;-65
2022/12/08 00:31:09;;;;;;;4.30;1.50;;;2.60;99.90;;;;;;5085127;28;20139;-66
2022/12/08 00:33:35;;;;;;;7.47;1.65;;;2.50;99.90;;;;;;5086679;28;20095;-65
2022/12/08 00:36:12;;;;;;;8.88;2.03;;;2.60;99.90;;;;;;5075993;28;20096;-66
2022/12/08 00:38:39;;;;;;;16.20;2.65;;;2.50;99.90;;;;;;5085830;28;20048;-66
2022/12/08 00:41:14;;;;;;;10.52;1.77;;;2.50;99.90;;;;;;5084935;28;20048;-65
2022/12/08 00:43:40;;;;;;;5.70;1.80;;;2.40;99.90;;;;;;5085243;28;20101;-66
2022/12/08 00:46:05;;;;;;;6.32;1.90;;;2.60;99.90;;;;;;5086335;28;20041;-65
2022/12/08 00:48:31;;;;;;;6.95;2.10;;;2.60;99.90;;;;;;5085338;28;20097;-65
2022/12/08 00:50:57;;;;;;;13.50;2.38;;;2.60;99.90;;;;;;5098058;28;20044;-66
2022/12/08 00:53:22;;;;;;;8.90;2.28;;;2.50;99.90;;;;;;5084396;28;20075;-65
2022/12/08 00:55:48;;;;;;;10.13;2.17;;;2.70;99.90;;;;;;5085055;28;20049;-66
2022/12/08 00:58:14;;;;;;;7.10;1.90;;;2.60;99.90;;;;;;5083820;28;20053;-66
2022/12/08 01:00:41;;;;;;;8.77;1.92;;;2.70;99.90;;;;;;5083798;28;20052;-66
2022/12/08 01:03:09;;;;;;;10.15;2.00;;;2.80;99.90;;;;;;5083020;28;20045;-66
2022/12/08 01:05:35;;;;;;;4.55;1.80;;;2.70;99.90;;;;;;5084585;28;20040;-66
2022/12/08 01:08:00;;;;;;;9.85;2.35;;;2.80;99.90;;;;;;5084571;28;20091;-66
2022/12/08 01:10:26;;;;;;;5.45;2.10;;;2.70;99.90;;;;;;5095536;28;20051;-66
2022/12/08 01:12:52;;;;;;;7.78;2.47;;;2.80;99.90;;;;;;5077316;28;20032;-66
2022/12/08 01:15:17;;;;;;;8.27;2.03;;;2.80;99.90;;;;;;5085714;28;20037;-66
2022/12/08 01:17:43;;;;;;;7.03;2.10;;;2.90;99.90;;;;;;5085653;28;20045;-66
2022/12/08 01:20:09;;;;;;;6.82;2.13;;;2.90;99.90;;;;;;5078089;28;20117;-66
2022/12/08 01:22:36;;;;;;;9.48;2.10;;;2.80;99.90;;;;;;5083932;28;20052;-66
2022/12/08 01:25:02;;;;;;;4.55;2.03;;;3.00;99.90;;;;;;5085621;28;20051;-66
2022/12/08 01:27:27;;;;;;;10.25;2.28;;;2.90;99.90;;;;;;5084389;28;20053;-66
2022/12/08 01:29:53;;;;;;;4.85;1.80;;;2.80;99.90;;;;;;5064406;28;20067;-66
2022/12/08 01:32:18;;;;;;;7.07;2.83;;;2.90;99.90;;;;;;5077108;28;20666;-66
2022/12/08 01:34:44;;;;;;;5.18;2.00;;;2.70;99.90;;;;;;5085612;28;20041;-66
2022/12/08 01:37:11;;;;;;;8.13;2.30;;;2.90;99.90;;;;;;5085264;28;20044;-66
2022/12/08 01:39:37;;;;;;;5.53;2.22;;;2.90;99.90;;;;;;5082616;28;20048;-66
2022/12/08 01:42:03;;;;;;;5.85;2.15;;;2.90;99.90;;;;;;5083270;28;20037;-66
2022/12/08 01:44:28;;;;;;;6.55;1.90;;;2.70;99.90;;;;;;5079432;28;20063;-66
2022/12/08 01:46:54;;;;;;;5.40;2.30;;;2.70;99.90;;;;;;5064185;28;20045;-66
2022/12/08 01:49:31;;;;;;;7.30;2.35;;;2.70;99.90;;;;;;5083446;28;20079;-66
2022/12/08 01:52:25;;;;;;;7.25;2.28;;;2.70;99.90;;;;;;5083883;28;20076;-66
2022/12/08 01:55:03;;;;;;;6.68;2.53;;;2.60;99.90;;;;;;5079251;28;20104;-66
2022/12/08 01:57:35;;;;;;;6.32;2.45;;;2.70;99.90;;;;;;5071325;28;20092;-66
2022/12/08 02:00:11;;;;;;;7.63;2.95;;;2.60;99.90;;;;;;5083798;28;20049;-66
2022/12/08 02:03:03;;;;;;;7.25;2.63;;;2.60;99.90;;;;;;5069821;28;20074;-66
2022/12/08 02:05:32;;;;;;;8.60;2.92;;;2.70;99.90;;;;;;5084369;28;20040;-66
2022/12/08 02:08:00;;;;;;;6.63;2.38;;;2.60;99.90;;;;;;5080391;28;20052;-66
2022/12/08 02:10:32;;;;;;;8.63;2.88;;;2.60;99.90;;;;;;5085727;28;20053;-66
2022/12/08 02:12:59;;;;;;;7.35;2.97;;;2.60;99.90;;;;;;5074599;28;20494;-66
2022/12/08 02:15:36;;;;;;;14.48;2.90;;;2.60;99.90;;;;;;5084192;28;20404;-66
2022/12/08 02:18:50;;;;;;;8.90;3.10;;;2.60;99.90;;;;;;5083484;28;20048;-66
2022/12/08 02:21:30;;;;;;;8.35;2.80;;;2.40;99.90;;;;;;5003275;28;20424;-66
2022/12/08 02:24:06;;;;;;;6.25;2.72;;;2.40;99.90;;;;;;4986868;28;20230;-66
2022/12/08 02:27:06;;;;;;;7.63;3.25;;;2.40;99.90;;;;;;4992643;28;20482;-66
2022/12/08 02:29:42;;;;;;;;;;;2.60;99.90;;;;;;5004229;28;20058;-66
2022/12/08 02:32:34;;;;;;;5.68;2.33;;;2.60;99.90;;;;;;5002876;28;19925;-66
2022/12/08 02:35:26;;;;;;;6.60;3.28;;;2.60;99.90;;;;;;5003286;28;20074;-66
2022/12/08 02:38:00;;;;;;;3.60;2.30;;;2.60;99.90;;;;;;5021187;28;20060;-66
2022/12/08 02:40:46;;;;;;;6.85;2.03;;;2.50;99.90;;;;;;4994282;28;20125;-66
2022/12/08 02:43:24;;;;;;;5.05;1.92;;;2.60;99.90;;;;;;5006911;28;20053;-66
2022/12/08 02:46:01;;;;;;;6.40;2.13;;;2.50;99.90;;;;;;4998591;28;20050;-66
2022/12/08 02:48:28;;;;;;;4.35;1.65;;;2.60;99.90;;;;;;5012628;28;20054;-65
2022/12/08 02:50:54;;;;;;;4.20;1.50;;;2.60;99.90;;;;;;5013060;28;20054;-65
2022/12/08 02:53:20;;;;;;;5.85;1.73;;;2.40;99.90;;;;;;5068976;28;20045;-66
2022/12/08 02:56:07;;;;;;;3.67;1.40;;;2.50;99.90;;;;;;5088380;28;20045;-65
2022/12/08 02:59:03;;;;;;;3.67;1.30;;;2.50;99.90;;;;;;5073511;28;20061;-65
2022/12/08 03:01:47;;;;;;;3.53;1.60;;;2.40;99.90;;;;;;5091028;28;20053;-66
2022/12/08 03:04:25;;;;;;;4.53;1.40;;;2.50;99.90;;;;;;5086310;28;20048;-66
2022/12/08 03:07:20;;;;;;;4.90;2.20;;;2.50;99.90;;;;;;5085949;28;20072;-65
2022/12/08 03:09:49;;;;;;;5.95;2.80;;;2.50;99.90;;;;;;5086650;28;20127;-66
2022/12/08 03:12:37;;;;;;;5.22;2.13;;;2.40;99.90;;;;;;5087958;28;20049;-66
2022/12/08 03:15:13;;;;;;;8.95;2.15;;;2.50;99.90;;;;;;5074832;28;20063;-65
2022/12/08 03:17:46;;;;;;;6.53;2.40;;;2.50;99.90;;;;;;5087334;28;20049;-66
2022/12/08 03:20:16;;;;;;;5.95;2.50;;;2.60;99.90;;;;;;5077665;28;20123;-66
2022/12/08 03:22:44;;;;;;;8.00;2.20;;;2.50;99.90;;;;;;5085972;28;20045;-66
2022/12/08 03:25:13;;;;;;;6.70;2.38;;;2.50;99.90;;;;;;5064949;28;20125;-66
2022/12/08 03:27:39;;;;;;;3.90;2.03;;;2.60;99.90;;;;;;5079176;28;20614;-65
2022/12/08 03:30:06;;;;;;;4.90;1.98;;;2.60;99.90;;;;;;5087240;28;20091;-65
2022/12/08 03:32:52;;;;;;;4.25;2.08;;;2.60;99.90;;;;;;5074320;28;20068;-66
2022/12/08 03:35:23;;;;;;;4.93;1.90;;;2.60;99.90;;;;;;5067256;28;20040;-66
2022/12/08 03:37:49;;;;;;;3.67;1.85;;;2.70;99.90;;;;;;5068420;28;20083;-66
2022/12/08 03:40:19;;;;;;;4.93;1.77;;;2.70;99.90;;;;;;5065678;28;20044;-66
2022/12/08 03:42:45;;;;;;;4.57;2.30;;;2.70;99.90;;;;;;5087811;28;20072;-66
2022/12/08 03:45:11;;;;;;;5.65;2.30;;;2.80;99.90;;;;;;5080107;28;20070;-66
2022/12/08 03:47:37;;;;;;;5.07;2.42;;;2.70;99.90;;;;;;5087666;28;20048;-66
2022/12/08 03:50:03;;;;;;;5.60;2.10;;;2.70;99.90;;;;;;5087287;28;20040;-66
2022/12/08 03:52:29;;;;;;;3.90;1.50;;;2.80;99.90;;;;;;5059488;28;20071;-66
2022/12/08 03:54:55;;;;;;;5.10;2.17;;;2.70;99.90;;;;;;5055141;28;20068;-66
2022/12/08 03:57:20;;;;;;;4.82;1.80;;;2.80;99.90;;;;;;5076517;28;20083;-65
2022/12/08 03:59:46;;;;;;;7.38;1.92;;;2.70;99.90;;;;;;5072891;28;20098;-66
2022/12/08 04:02:12;;;;;;;4.57;1.60;;;2.70;99.90;;;;;;5077164;28;20037;-65
2022/12/08 04:04:37;;;;;;;3.17;1.60;;;2.80;99.90;;;;;;5064341;28;20083;-66
2022/12/08 04:07:03;;;;;;;3.17;1.60;;;2.70;99.90;;;;;;5085748;28;20044;-66
2022/12/08 04:09:29;;;;;;;3.60;1.80;;;2.60;99.90;;;;;;5061259;28;20039;-66
2022/12/08 04:11:54;;;;;;;4.72;1.90;;;2.70;99.90;;;;;;5085046;28;20106;-66
2022/12/08 04:14:20;;;;;;;5.18;1.38;;;2.60;99.90;;;;;;5084794;28;20056;-66
2022/12/08 04:16:46;;;;;;;2.80;1.70;;;2.60;99.90;;;;;;5078784;28;20033;-66
2022/12/08 04:19:11;;;;;;;2.95;1.33;;;2.50;99.90;;;;;;5063314;28;20052;-66
2022/12/08 04:21:37;;;;;;;5.10;2.08;;;2.60;99.90;;;;;;5062768;28;20076;-65
2022/12/08 04:24:03;;;;;;;3.58;1.55;;;2.40;99.90;;;;;;5065843;28;20068;-66
2022/12/08 04:26:29;;;;;;;3.47;1.10;;;2.40;99.90;;;;;;5078670;28;20052;-66
2022/12/08 04:28:54;;;;;;;4.18;1.30;;;2.40;99.90;;;;;;5086192;28;20040;-66
2022/12/08 04:31:20;;;;;;;2.53;1.40;;;2.20;99.90;;;;;;5081002;28;20059;-66
2022/12/08 04:33:46;;;;;;;2.70;1.40;;;2.30;99.90;;;;;;5060526;28;20579;-66
2022/12/08 04:36:11;;;;;;;3.00;1.20;;;2.30;99.90;;;;;;5067157;28;20048;-66
2022/12/08 04:38:37;;;;;;;2.60;1.55;;;2.30;99.90;;;;;;5063540;28;20044;-65
2022/12/08 04:41:03;;;;;;;2.75;1.25;;;2.20;99.90;;;;;;5067781;28;20048;-66
2022/12/08 04:43:29;;;;;;;4.13;1.50;;;2.30;99.90;;;;;;5067773;28;20117;-66
2022/12/08 04:45:54;;;;;;;2.72;1.52;;;2.20;99.90;;;;;;5085489;28;20040;-66
2022/12/08 04:48:20;;;;;;;3.17;1.10;;;2.30;99.90;;;;;;5085430;28;20096;-66
2022/12/08 04:50:46;;;;;;;4.50;1.52;;;2.30;99.90;;;;;;5085393;28;20053;-66
2022/12/08 04:53:12;;;;;;;2.17;1.40;;;2.40;99.90;;;;;;5067493;28;20052;-66
2022/12/08 04:55:40;;;;;;;3.97;1.50;;;2.20;99.90;;;;;;5067965;28;20051;-66
2022/12/08 04:58:06;;;;;;;3.65;2.03;;;2.40;99.90;;;;;;5067654;28;20063;-66
2022/12/08 05:00:32;;;;;;;3.13;1.40;;;2.30;99.90;;;;;;5085985;28;20037;-66
2022/12/08 05:02:58;;;;;;;6.22;1.90;;;2.40;99.90;;;;;;5067580;28;20040;-66
2022/12/08 05:05:23;;;;;;;2.15;1.10;;;2.30;99.90;;;;;;5085164;28;20101;-66
2022/12/08 05:07:49;;;;;;;2.67;1.50;;;2.40;99.90;;;;;;5061731;28;20080;-66
2022/12/08 05:10:15;;;;;;;3.25;1.60;;;2.40;99.90;;;;;;5067658;28;20048;-66
2022/12/08 05:12:40;;;;;;;4.47;1.95;;;2.30;99.90;;;;;;5067743;28;20051;-66
2022/12/08 05:15:07;;;;;;;3.13;1.67;;;2.50;99.90;;;;;;5066822;28;20508;-66
2022/12/08 05:17:32;;;;;;;5.85;1.70;;;2.40;99.90;;;;;;5083529;28;20527;-66
2022/12/08 05:19:58;;;;;;;2.38;1.30;;;2.30;99.90;;;;;;5072973;28;20067;-66
2022/12/08 05:22:24;;;;;;;3.30;1.80;;;2.40;99.90;;;;;;5065801;28;20074;-67
2022/12/08 05:24:49;;;;;;;2.53;1.00;;;2.40;99.90;;;;;;5066269;28;20061;-66
2022/12/08 05:27:15;;;;;;;2.22;1.30;;;2.40;99.90;;;;;;5098584;28;20051;-66
2022/12/08 05:29:41;;;;;;;4.03;1.70;;;2.30;99.90;;;;;;5086938;28;20141;-66
2022/12/08 05:32:07;;;;;;;2.22;1.38;;;2.40;99.90;;;;;;5086762;28;20075;-67
2022/12/08 05:34:32;;;;;;;1.88;1.20;;;2.40;99.90;;;;;;5050262;28;20484;-66
2022/12/08 05:36:58;;;;;;;3.05;1.40;;;2.40;99.90;;;;;;5104237;28;20044;-66
2022/12/08 05:39:24;;;;;;;2.15;1.40;;;2.30;99.90;;;;;;5103057;28;20099;-66
2022/12/08 05:41:49;;;;;;;3.65;1.52;;;2.50;99.90;;;;;;5087216;28;20044;-66
2022/12/08 05:44:15;;;;;;;3.55;1.50;;;2.30;99.90;;;;;;5090725;28;20094;-68
2022/12/08 05:46:41;;;;;;;5.45;1.60;;;2.40;99.90;;;;;;5082657;28;20057;-67
2022/12/08 05:49:06;;;;;;;4.82;1.50;;;2.40;99.90;;;;;;5103799;28;20087;-67
2022/12/08 05:51:32;;;;;;;3.05;1.48;;;2.50;99.90;;;;;;5084368;28;20134;-66
2022/12/08 05:53:58;;;;;;;3.00;1.50;;;2.50;99.90;;;;;;5093427;28;20055;-67
2022/12/08 05:56:24;;;;;;;2.15;1.00;;;2.40;99.90;;;;;;5066606;28;20032;-67
2022/12/08 05:58:50;;;;;;;1.30;1.00;;;2.50;99.90;;;;;;5081784;28;20043;-67
2022/12/08 06:01:27;;;;;;;1.40;0.90;;;2.40;99.90;;;;;;5077528;28;20492;-67
2022/12/08 06:03:53;;;;;;;2.25;0.90;;;2.50;99.90;;;;;;5084659;28;20043;-67
2022/12/08 06:06:20;;;;;;;2.33;0.90;;;2.50;99.90;;;;;;5083361;28;20104;-67
2022/12/08 06:08:45;;;;;;;2.55;1.00;;;2.30;99.90;;;;;;5098436;28;20044;-67
2022/12/08 06:11:26;;;;;;;1.13;0.85;;;2.40;99.90;;;;;;5101421;28;20083;-67
2022/12/08 06:13:52;;;;;;;4.18;1.02;;;2.40;99.90;;;;;;5097261;28;20053;-67
2022/12/08 06:16:18;;;;;;;3.95;1.45;;;2.50;99.90;;;;;;5087119;28;20041;-67
2022/12/08 06:18:44;;;;;;;2.47;1.42;;;2.50;99.90;;;;;;5066152;28;20146;-68
2022/12/08 06:21:12;;;;;;;4.28;1.35;;;2.40;99.90;;;;;;5102273;28;20383;-66
2022/12/08 06:23:38;;;;;;;3.97;1.20;;;2.40;99.90;;;;;;5103581;28;20082;-66
2022/12/08 06:26:06;;;;;;;2.78;1.25;;;2.40;99.90;;;;;;5088036;28;20049;-66
2022/12/08 06:28:33;;;;;;;1.67;0.90;;;2.40;99.90;;;;;;5102239;28;20049;-65
2022/12/08 06:30:59;;;;;;;1.80;0.93;;;2.30;99.90;;;;;;5075989;28;20036;-66
2022/12/08 06:33:25;;;;;;;2.00;0.80;;;2.20;99.90;;;;;;5092502;28;20063;-66
2022/12/08 06:35:51;;;;;;;4.82;1.55;;;2.40;99.90;;;;;;5104798;28;20044;-66
2022/12/08 06:38:18;;;;;;;5.47;1.73;;;2.30;99.90;;;;;;5078119;28;20601;-66
2022/12/08 06:40:43;;;;;;;1.55;1.38;;;2.30;99.90;;;;;;5067550;28;20044;-65
2022/12/08 06:43:09;;;;;;;2.08;1.50;;;2.30;99.90;;;;;;5085761;28;20549;-66
2022/12/08 06:45:35;;;;;;;3.80;1.55;;;2.30;99.90;;;;;;5070805;28;20064;-66
2022/12/08 06:48:01;;;;;;;2.53;1.38;;;2.40;99.90;;;;;;5069234;28;20044;-66
2022/12/08 06:50:27;;;;;;;2.33;1.38;;;2.40;99.90;;;;;;5081852;28;20044;-66
2022/12/08 06:52:53;;;;;;;2.40;1.23;;;2.40;99.90;;;;;;5049512;28;20044;-66
2022/12/08 06:55:19;;;;;;;2.03;1.20;;;2.40;99.90;;;;;;5068926;28;20041;-65
2022/12/08 06:57:45;;;;;;;3.40;1.30;;;2.20;99.90;;;;;;5067471;28;20445;-66
2022/12/08 07:00:11;;;;;;;6.00;1.30;;;2.20;99.90;;;;;;5071734;28;20052;-66
2022/12/08 07:02:37;;;;;;;2.50;1.40;;;2.30;99.90;;;;;;5076688;28;20071;-65
2022/12/08 07:05:03;;;;;;;3.22;1.70;;;2.30;99.90;;;;;;5083254;28;20040;-66
2022/12/08 07:07:28;;;;;;;2.78;1.60;;;2.20;99.90;;;;;;5084714;28;20741;-66
2022/12/08 07:09:54;;;;;;;4.80;1.70;;;2.10;99.90;;;;;;5067992;28;20044;-66
2022/12/08 07:12:20;;;;;;;4.00;1.75;;;2.30;99.90;;;;;;5087193;28;20028;-66
2022/12/08 07:14:45;;;;;;;6.20;2.35;;;2.30;99.90;;;;;;5086639;28;20378;-66
2022/12/08 07:17:11;;;;;;;6.63;2.67;;;2.40;99.90;;;;;;5068045;28;20064;-66
2022/12/08 07:19:37;;;;;;;4.82;2.65;;;2.40;99.90;;;;;;5040450;28;20053;-66
2022/12/08 07:22:03;;;;;;;6.85;3.47;;;2.30;99.90;;;;;;5039659;28;20049;-66
2022/12/08 07:24:28;;;;;;;6.10;3.60;;;2.40;99.90;;;;;;5049666;28;20655;-66
2022/12/08 07:26:54;;;;;;;9.20;4.70;;;2.30;99.90;;;;;;5062274;28;20064;-66
2022/12/08 07:29:20;;;;;;;8.90;5.93;;;2.40;99.90;;;;;;5053909;28;20420;-66
2022/12/08 07:31:46;;;;;;;9.85;5.13;;;2.40;99.90;;;;;;5056926;28;20057;-66
2022/12/08 07:34:12;;;;;;;9.32;5.43;;;2.40;99.90;;;;;;5066657;28;20113;-66
2022/12/08 07:36:38;;;;;;;8.20;4.80;;;2.50;99.90;;;;;;5034735;28;20088;-67
2022/12/08 07:39:04;;;;;;;8.52;5.22;;;2.40;99.90;;;;;;5068759;28;20493;-67
2022/12/08 07:41:30;;;;;;;7.53;4.93;;;2.40;99.90;;;;;;5061465;28;20076;-65
2022/12/08 07:43:56;;;;;;;9.60;4.95;;;2.40;99.90;;;;;;5076120;28;20044;-65
2022/12/08 07:46:23;;;;;;;11.88;4.97;;;2.50;99.90;;;;;;5044305;28;20057;-65
2022/12/08 07:48:51;;;;;;;12.32;5.25;;;2.40;99.90;;;;;;5072819;28;20044;-65
2022/12/08 07:51:17;;;;;;;7.18;4.50;;;2.50;99.90;;;;;;5061692;28;20072;-65
2022/12/08 07:53:45;;;;;;;7.13;4.35;;;2.40;99.90;;;;;;5056512;28;20040;-65
2022/12/08 07:56:12;;;;;;;6.68;4.10;;;2.30;99.90;;;;;;5067834;28;20566;-65
2022/12/08 07:58:38;;;;;;;8.75;4.53;;;2.50;99.90;;;;;;5061899;28;20082;-65
2022/12/08 08:01:04;;;;;;;8.32;4.65;;;2.50;99.90;;;;;;5067761;28;20071;-65
2022/12/08 08:03:31;;;;;;;8.38;4.25;;;2.30;99.90;;;;;;5060709;28;20029;-65
2022/12/08 08:06:03;;;;;;;10.10;4.50;;;2.40;99.90;;;;;;5051283;28;20300;-65
2022/12/08 08:08:29;;;;;;;5.32;3.38;;;2.40;99.90;;;;;;5063102;28;20044;-65
2022/12/08 08:10:55;;;;;;;7.07;3.70;;;2.30;99.90;;;;;;5051856;28;20124;-65
2022/12/08 08:13:20;;;;;;;5.32;3.58;;;2.20;99.90;;;;;;5055251;28;20041;-66
2022/12/08 08:15:46;;;;;;;4.68;2.78;;;2.30;99.90;;;;;;5050144;28;20544;-65
2022/12/08 08:18:12;;;;;;;5.68;2.70;;;2.20;99.90;;;;;;5051821;28;20052;-65
2022/12/08 08:20:37;;;;;;;4.43;2.80;;;2.20;99.90;;;;;;5050146;28;20052;-65
2022/12/08 08:23:03;;;;;;;5.80;2.78;;;2.10;99.90;;;;;;5055895;28;20053;-65
2022/12/08 08:25:29;;;;;;;6.85;2.80;;;2.10;99.90;;;;;;5048713;28;20041;-66
2022/12/08 08:27:54;;;;;;;3.92;2.47;;;2.10;99.90;;;;;;5067446;28;20084;-65
2022/12/08 08:30:20;;;;;;;5.40;2.65;;;2.00;99.90;;;;;;5068039;28;20071;-66
2022/12/08 08:32:46;;;;;;;8.00;3.03;;;2.20;99.90;;;;;;5077002;28;20112;-65
2022/12/08 08:35:12;;;;;;;5.63;2.35;;;2.00;99.90;;;;;;5040773;28;20058;-65
2022/12/08 08:37:38;;;;;;;2.50;2.00;;;2.10;99.90;;;;;;5036445;28;20116;-65
2022/12/08 08:40:04;;;;;;;3.90;2.65;;;2.10;99.90;;;;;;5039015;28;20071;-66
2022/12/08 08:42:30;;;;;;;4.57;2.35;;;2.00;99.90;;;;;;5067318;28;20083;-65
2022/12/08 08:44:55;;;;;;;5.45;2.75;;;2.00;99.90;;;;;;5027977;28;20037;-65
2022/12/08 08:47:21;;;;;;;5.72;2.63;;;2.00;99.90;;;;;;5050208;28;20136;-65
2022/12/08 08:49:47;;;;;;;7.45;2.80;;;2.00;99.90;;;;;;5070832;28;20036;-65
2022/12/08 08:52:12;;;;;;;5.88;2.58;;;2.00;99.90;;;;;;5037641;28;20477;-65
2022/12/08 08:54:38;;;;;;;6.60;3.25;;;1.90;99.90;;;;;;5059547;28;20048;-65
2022/12/08 08:57:04;;;;;;;6.72;3.90;;;1.90;99.90;;;;;;5066405;28;20072;-65
2022/12/08 08:59:30;;;;;;;9.00;3.90;;;2.00;99.90;;;;;;5061179;28;20055;-65
2022/12/08 09:01:55;;;;;;;8.15;3.95;;;2.00;99.90;;;;;;5067831;28;20045;-65
2022/12/08 09:04:21;;;;;;;7.47;3.92;;;2.00;99.90;;;;;;5062214;28;20048;-65
2022/12/08 09:06:48;;;;;;;7.30;4.43;;;2.10;99.90;;;;;;5047987;28;20145;-65
2022/12/08 09:09:15;;;;;;;8.70;4.25;;;1.90;99.90;;;;;;5062699;28;20052;-65
2022/12/08 09:11:41;;;;;;;7.82;4.50;;;1.90;99.90;;;;;;5063483;28;20049;-65
2022/12/08 09:14:06;;;;;;;8.50;4.20;;;1.90;99.90;;;;;;5056342;28;20049;-65
2022/12/08 09:16:32;;;;;;;8.43;4.18;;;2.00;99.90;;;;;;5048953;28;20110;-65
2022/12/08 09:18:59;;;;;;;7.70;4.07;;;1.90;99.90;;;;;;5055889;28;20055;-65
2022/12/08 09:21:26;;;;;;;7.45;3.58;;;2.00;99.90;;;;;;5050699;28;20040;-65
2022/12/08 09:23:56;;;;;;;6.82;4.20;;;2.10;99.90;;;;;;5055691;28;20118;-65
2022/12/08 09:26:23;;;;;;;6.97;3.72;;;1.90;99.90;;;;;;5065618;28;20084;-65
2022/12/08 09:28:50;;;;;;;11.38;3.88;;;2.00;99.90;;;;;;5053882;28;20360;-65
2022/12/08 09:31:18;;;;;;;8.45;4.60;;;2.00;99.90;;;;;;5046644;28;20059;-65
2022/12/08 09:33:43;;;;;;;7.03;3.58;;;1.90;99.90;;;;;;5056434;28;20040;-65
2022/12/08 09:36:09;;;;;;;8.73;3.70;;;1.80;99.90;;;;;;5022850;28;20063;-65
2022/12/08 09:38:36;;;;;;;8.20;4.00;;;1.90;99.90;;;;;;5055102;28;20108;-65
2022/12/08 09:41:06;;;;;;;6.57;3.50;;;1.90;99.90;;;;;;5049995;28;20052;-65
2022/12/08 09:43:50;;;;;;;5.97;3.55;;;1.90;99.90;;;;;;5076437;28;20092;-65
2022/12/08 09:46:18;;;;;;;9.73;3.55;;;1.80;99.90;;;;;;5049794;28;20124;-65
2022/12/08 09:48:56;;;;;;;6.47;3.40;;;1.70;99.90;;;;;;5058730;28;20044;-65
2022/12/08 09:51:29;;;;;;;7.93;3.40;;;1.50;99.90;;;;;;5040219;28;20063;-65
2022/12/08 09:53:59;;;;;;;9.80;4.00;;;1.50;99.90;;;;;;5041554;28;20101;-64
2022/12/08 09:56:29;;;;;;;5.68;3.22;;;1.40;99.90;;;;;;5051402;28;20080;-65
2022/12/08 09:59:33;;;;;;;9.75;4.07;;;1.50;99.90;;;;;;5054194;28;20073;-65
2022/12/08 10:02:00;;;;;;;8.25;3.47;;;1.50;99.90;;;;;;5050894;28;20228;-65
2022/12/08 10:04:33;;;;;;;6.00;3.40;;;1.30;99.90;;;;;;5051475;28;20052;-65
2022/12/08 10:07:17;;;;;;;7.90;3.67;;;1.30;99.90;;;;;;5046645;28;20053;-65
2022/12/08 10:10:20;;;;;;;6.53;4.07;;;1.40;99.90;;;;;;5060100;28;20045;-65
2022/12/08 10:13:12;;;;;;;10.00;4.68;;;1.40;99.90;;;;;;5046158;28;20060;-65
2022/12/08 10:15:54;;;;;;;8.48;3.90;;;1.40;99.90;;;;;;5046063;28;20092;-65
2022/12/08 10:18:27;;;;;;;9.48;4.35;;;1.40;99.90;;;;;;5062043;28;20040;-65
2022/12/08 10:21:21;;;;;;;5.90;3.78;;;1.50;99.90;;;;;;5048220;28;20059;-65
2022/12/08 10:23:50;;;;;;;9.13;3.83;;;1.60;99.90;;;;;;5054696;28;20198;-65
2022/12/08 10:26:18;;;;;;;7.60;3.60;;;1.70;99.90;;;;;;5066858;28;20147;-65
2022/12/08 10:28:44;;;;;;;8.77;3.42;;;2.00;99.90;;;;;;5058097;28;20047;-65
2022/12/08 10:31:22;;;;;;;7.32;3.30;;;2.20;99.90;;;;;;5048178;28;20048;-65
2022/12/08 10:34:14;;;;;;;6.78;3.30;;;2.50;99.90;;;;;;5061470;28;20081;-65
2022/12/08 10:36:46;;;;;;;10.60;3.50;;;2.50;99.90;;;;;;5031864;28;20144;-65
2022/12/08 10:39:34;;;;;;;7.72;2.95;;;2.70;99.90;;;;;;5070585;28;20052;-65
2022/12/08 10:42:07;;;;;;;10.90;3.38;;;2.70;99.90;;;;;;5048242;28;20048;-66
2022/12/08 10:44:39;;;;;;;6.85;3.08;;;2.90;99.90;;;;;;5058756;28;20048;-65
2022/12/08 10:47:12;;;;;;;7.57;3.10;;;3.00;99.90;;;;;;5046324;28;20052;-65
2022/12/08 10:49:38;;;;;;;7.85;3.22;;;3.00;99.90;;;;;;5055834;28;20487;-65
2022/12/08 10:52:20;;;;;;;9.63;3.30;;;3.10;99.90;;;;;;5029976;28;20060;-65
2022/12/08 10:54:53;;;;;;;7.57;2.53;;;3.10;99.90;;;;;;5056767;28;20055;-65
2022/12/08 10:57:22;;;;;;;8.48;2.92;;;3.30;99.90;;;;;;5046178;28;20060;-65
2022/12/08 10:59:48;;;;;;;3.35;2.60;;;3.50;99.90;;;;;;5057072;28;20063;-65
2022/12/08 11:02:19;;;;;;;5.53;3.00;;;3.40;99.90;;;;;;5047422;28;20127;-65
2022/12/08 11:04:45;;;;;;;9.95;4.07;;;3.60;99.90;;;;;;5076412;28;20047;-65
2022/12/08 11:07:20;;;;;;;5.57;3.10;;;3.50;99.90;;;;;;5066181;28;20638;-65
2022/12/08 11:09:49;;;;;;;6.90;2.92;;;3.60;99.90;;;;;;5084671;28;20083;-65
2022/12/08 11:12:19;;;;;;;5.50;2.65;;;3.60;99.90;;;;;;5050563;28;20045;-65
2022/12/08 11:14:45;;;;;;;6.22;3.38;;;3.60;99.90;;;;;;5073259;28;20653;-64
2022/12/08 11:17:24;;;;;;;4.97;2.85;;;3.70;99.90;;;;;;5033911;28;20045;-64
2022/12/08 11:20:01;;;;;;;5.43;2.85;;;3.70;99.90;;;;;;5069316;28;20554;-64
2022/12/08 11:22:36;;;;;;;5.80;3.20;;;3.70;99.90;;;;;;5037471;28;20053;-65
2022/12/08 11:25:10;;;;;;;7.50;3.22;;;3.80;99.90;;;;;;5059581;28;20064;-64
2022/12/08 11:27:39;;;;;;;4.85;3.20;;;3.90;99.90;;;;;;5039468;28;20041;-64
2022/12/08 11:30:30;;;;;;;5.53;2.90;;;4.00;99.90;;;;;;5076182;28;20063;-65
2022/12/08 11:32:59;;;;;;;6.35;3.17;;;4.00;99.90;;;;;;5018342;28;20049;-64
2022/12/08 11:35:31;;;;;;;7.55;3.13;;;4.00;99.90;;;;;;5057005;28;20257;-64
2022/12/08 11:38:20;;;;;;;5.32;3.30;;;4.10;99.90;;;;;;5027417;28;20048;-64
2022/12/08 11:40:49;;;;;;;6.97;3.10;;;4.20;99.90;;;;;;5041790;28;20051;-64
2022/12/08 11:43:25;;;;;;;7.03;3.10;;;4.30;99.90;;;;;;5060194;28;20048;-64
2022/12/08 11:45:57;;;;;;;5.50;3.05;;;4.30;99.90;;;;;;5047189;28;20052;-64
2022/12/08 11:48:40;;;;;;;5.55;3.10;;;4.40;99.90;;;;;;5047534;28;20079;-64
2022/12/08 11:51:12;;;;;;;6.70;2.95;;;4.40;99.90;;;;;;5042052;28;20064;-64
2022/12/08 11:54:02;;;;;;;7.03;3.30;;;4.30;99.90;;;;;;5065821;28;20098;-65
2022/12/08 11:56:35;;;;;;;8.93;3.30;;;4.40;99.90;;;;;;5040214;28;20121;-64
2022/12/08 11:59:13;;;;;;;6.20;3.20;;;4.40;99.90;;;;;;5056670;28;20441;-64
2022/12/08 12:01:39;;;;;;;5.57;2.95;;;4.60;99.90;;;;;;5040394;28;20100;-65
2022/12/08 12:04:28;;;;;;;6.15;3.13;;;4.50;99.90;;;;;;5048942;28;20040;-67
2022/12/08 12:07:15;;;;;;;5.55;2.85;;;4.50;99.90;;;;;;5046023;28;20049;-64
2022/12/08 12:09:58;;;;;;;9.43;2.90;;;4.50;99.90;;;;;;5053245;28;20044;-65
2022/12/08 12:12:33;;;;;;;6.22;2.53;;;4.50;99.90;;;;;;5026809;28;20075;-65
2022/12/08 12:15:04;;;;;;;6.50;3.53;;;4.60;99.90;;;;;;5077128;28;20272;-65
2022/12/08 12:17:35;;;;;;;7.93;3.25;;;4.70;99.90;;;;;;5056302;28;20427;-65
2022/12/08 12:20:10;;;;;;;5.13;2.65;;;4.60;99.90;;;;;;5071463;28;20052;-65
2022/12/08 12:22:37;;;;;;;10.43;4.00;;;4.60;99.90;;;;;;5062246;28;20044;-65
2022/12/08 12:25:04;;;;;;;7.43;3.45;;;4.50;99.90;;;;;;5052944;28;20095;-65
2022/12/08 12:27:38;;;;;;;6.53;3.38;;;4.60;99.90;;;;;;5029592;28;20049;-65
2022/12/08 12:30:17;;;;;;;7.28;3.15;;;4.70;99.90;;;;;;5058182;28;20433;-65
2022/12/08 12:32:47;;;;;;;4.88;3.40;;;4.60;99.90;;;;;;5009426;28;20306;-64
2022/12/08 12:35:15;;;;;;;;;;;4.60;99.90;;;;;;5037276;28;20163;-65
2022/12/08 12:37:42;;;;;;;6.57;2.90;;;4.60;99.90;;;;;;5004825;28;20385;-64
2022/12/08 12:40:21;;;;;;;7.45;3.25;;;4.50;99.90;;;;;;5054545;28;20037;-65
2022/12/08 12:43:11;;;;;;;6.15;3.08;;;4.60;99.90;;;;;;5026845;28;20160;-64
2022/12/08 12:45:42;;;;;;;7.07;3.33;;;4.70;99.90;;;;;;5024228;28;20084;-64
2022/12/08 12:48:08;;;;;;;6.25;2.90;;;4.50;99.90;;;;;;5024036;28;20053;-64
2022/12/08 12:50:54;;;;;;;8.05;2.97;;;4.50;99.90;;;;;;5040573;28;20041;-64
2022/12/08 12:53:19;;;;;;;5.70;3.25;;;4.60;99.90;;;;;;5007486;28;20864;-65
2022/12/08 12:55:45;;;;;;;4.95;2.33;;;4.60;99.90;;;;;;5040360;28;20045;-65
2022/12/08 12:58:35;;;;;;;6.88;2.63;;;4.70;99.90;;;;;;5041613;28;20096;-65
2022/12/08 13:01:10;;;;;;;6.15;2.65;;;4.60;99.90;;;;;;5035484;28;20101;-67
2022/12/08 13:03:46;;;;;;;5.00;2.28;;;4.80;99.90;;;;;;5027969;28;20129;-65
2022/12/08 13:06:22;;;;;;;6.13;2.72;;;4.70;99.90;;;;;;5048012;28;20388;-65
2022/12/08 13:08:55;;;;;;;11.02;2.78;;;4.90;99.90;;;;;;5028484;28;20076;-66
2022/12/08 13:11:22;;;;;;;4.28;2.72;;;5.00;99.90;;;;;;5028730;28;20059;-65
2022/12/08 13:14:02;;;;;;;8.35;2.88;;;5.00;99.90;;;;;;5029726;28;20278;-65
2022/12/08 13:16:32;;;;;;;7.90;2.40;;;5.20;99.90;;;;;;5027975;28;20276;-65
2022/12/08 13:19:02;;;;;;;5.68;2.10;;;5.30;99.90;;;;;;5054821;28;20075;-65